KMGJ/MGJ METAR and TAF weather

Enter ICAO airport designator
Station Type Date Time Source
KMGJ METAR 2022/06/25 21:54 UTC NOAA

KMGJ 252154Z AUTO 00000KT 10SM CLR 31/12 A3008 RMK AO2 SLP182 T03060122


Station Type Date Time Source
KMGJ Decoded METAR 2022/06/25 21:54 UTC NOAA

MONTGOMERY ORANGE CO AIRPORT, NY, United States (KMGJ) 41-31N 074-16W 108M
Jun 25, 2022 - 05:54 PM EDT / 2022.06.25 2154 UTC
Wind: Calm:0
Visibility: 10 mile(s):0
Sky conditions: clear
Temperature: 87.1 F (30.6 C)
Dew Point: 54.0 F (12.2 C)
Relative Humidity: 32%
Pressure (altimeter): 30.08 in. Hg (1018 hPa)
ob: KMGJ 252154Z AUTO 00000KT 10SM CLR 31/12 A3008 RMK AO2 SLP182 T03060122
cycle: 22

Station Type Date Time Source
KMGJ TAF UTC NOAA

Error!

Example: see airport list